CheckWX is a tool to help pilots better visualize weather data.  It is not intended as a substitute for an official pre-flight weather briefing.

11:44:19 UTC

EHBK METAR
Maastricht Aachen Airport
Maastricht, The Netherlands
Current

19 mins ago

EHBK 141125Z AUTO 11006KT 070V170 9999 NSC 22/15 Q1010 NOSIG
Observed
Oct-14 @ 11:25 UTC
Wind
  • 110° at 6 KTS
Visibility
10,000+ meters
Flight Rules
VFR
Cloud Levels
  • Clear skies
Temperature
22°C / 72°F
Dewpoint
15°C / 59°F
Humidity
65%
Altimeter
29.82" Hg
Pressure
1009.92 hPa
Previous

49 mins ago

EHBK 141055Z AUTO 11004KT 070V150 9999 NSC 21/14 Q1011 NOSIG
Observed
Oct-14 @ 10:55 UTC
Wind
  • 110° at 4 KTS
Visibility
10,000+ meters
Flight Rules
VFR
Cloud Levels
  • Clear skies
Temperature
21°C / 70°F
Dewpoint
14°C / 57°F
Humidity
64%
Altimeter
29.85" Hg
Pressure
1010.92 hPa
Previous

1 hour ago

EHBK 141025Z AUTO 11004KT 060V160 9999 NSC 20/15 Q1011 NOSIG
Observed
Oct-14 @ 10:25 UTC
Wind
  • 110° at 4 KTS
Visibility
10,000+ meters
Flight Rules
VFR
Cloud Levels
  • Clear skies
Temperature
20°C / 68°F
Dewpoint
15°C / 59°F
Humidity
73%
Altimeter
29.85" Hg
Pressure
1010.92 hPa